Time;durP1;ratioP1;P1;durP2;ratioP2;P2;SDS_P1;SDS_P2;PMS_P1;PMS_P2;Temp;Humidity;BMP_temperature;BMP_pressure;BME280_temperature;BME280_humidity;BME280_pressure;Samples;Min_cycle;Max_cycle;Signal;HPM_P1;HPM_P2
2022/02/19 00:02:12;;;;;;;5.22;4.25;;;;;;;14.01;67.59;99068.26;1782412;80;21061;-64
2022/02/19 00:04:39;;;;;;;5.22;4.25;;;;;;;13.99;67.65;99075.66;1760273;78;21505;-64
2022/02/19 00:07:05;;;;;;;5.10;4.08;;;;;;;13.95;67.64;99070.72;1774913;78;21032;-64
2022/02/19 00:09:33;;;;;;;4.75;3.70;;;;;;;13.93;67.64;99070.10;1761352;78;21017;-64
2022/02/19 00:12:00;;;;;;;4.10;3.45;;;;;;;13.92;67.68;99072.97;1771244;78;20970;-63
2022/02/19 00:14:27;;;;;;;5.55;4.40;;;;;;;13.89;67.78;99078.22;1779774;80;21501;-64
2022/02/19 00:16:53;;;;;;;5.33;4.33;;;;;;;13.87;67.75;99072.76;1780167;80;21024;-65
2022/02/19 00:19:20;;;;;;;4.97;4.22;;;;;;;13.85;67.75;99077.00;1774654;78;21085;-65
2022/02/19 00:21:47;;;;;;;4.67;4.08;;;;;;;13.83;67.74;99068.38;1775356;79;21151;-65
2022/02/19 00:24:13;;;;;;;4.45;3.85;;;;;;;13.81;67.77;99070.92;1766678;79;21090;-64
2022/02/19 00:26:40;;;;;;;4.85;3.95;;;;;;;13.79;67.76;99065.81;1775683;78;21050;-64
2022/02/19 00:29:07;;;;;;;4.85;4.05;;;;;;;13.77;67.80;99057.16;1761297;80;22470;-66
2022/02/19 00:31:34;;;;;;;5.17;4.03;;;;;;;13.75;67.77;99051.20;1774090;78;21069;-63
2022/02/19 00:34:00;;;;;;;5.08;4.20;;;;;;;13.72;67.78;99048.44;1738802;80;21914;-63
2022/02/19 00:36:27;;;;;;;5.03;4.30;;;;;;;13.70;67.79;99035.81;1768588;79;21049;-63
2022/02/19 00:38:54;;;;;;;4.53;3.85;;;;;;;13.68;67.75;99035.20;1761018;80;21504;-62
2022/02/19 00:41:20;;;;;;;4.90;4.17;;;;;;;13.67;67.84;99034.06;1775143;80;21006;-64
2022/02/19 00:43:46;;;;;;;5.65;3.87;;;;;;;13.65;67.87;99025.45;1765636;78;21072;-64
2022/02/19 00:46:13;;;;;;;4.97;4.17;;;;;;;13.62;67.86;99015.17;1781578;79;21911;-64
2022/02/19 00:48:39;;;;;;;6.00;4.90;;;;;;;13.61;67.82;99006.34;1778677;80;21061;-63
2022/02/19 00:51:06;;;;;;;7.53;5.33;;;;;;;13.59;67.87;99000.92;1792141;79;21037;-69
2022/02/19 00:53:35;;;;;;;4.97;4.20;;;;;;;13.56;67.87;99002.97;1793277;77;21516;-69
2022/02/19 00:56:04;;;;;;;4.95;4.00;;;;;;;13.55;67.89;98992.50;1778195;80;21060;-70
2022/02/19 00:58:32;;;;;;;6.10;4.22;;;;;;;13.52;67.88;98992.41;1751348;80;21105;-70
2022/02/19 01:01:00;;;;;;;5.00;4.08;;;;;;;13.50;67.87;98978.45;1769124;80;21046;-70
2022/02/19 01:03:29;;;;;;;5.97;4.33;;;;;;;13.48;67.84;98991.18;1770608;80;21101;-69
2022/02/19 01:05:56;;;;;;;4.60;3.98;;;;;;;13.46;67.84;98993.23;1767423;80;21031;-69
2022/02/19 01:08:23;;;;;;;4.55;3.70;;;;;;;13.44;67.82;98988.59;1774524;80;22032;-69
2022/02/19 01:10:50;;;;;;;4.78;4.28;;;;;;;13.42;67.84;98993.31;1786613;78;21137;-69
2022/02/19 01:13:17;;;;;;;5.78;4.53;;;;;;;13.42;67.80;98991.16;1752652;81;21012;-69
2022/02/19 01:15:44;;;;;;;4.75;3.98;;;;;;;13.39;67.80;98993.73;1784755;78;21556;-71
2022/02/19 01:18:10;;;;;;;5.00;3.95;;;;;;;13.37;67.80;98990.45;1784357;80;21000;-69
2022/02/19 01:20:41;;;;;;;5.10;4.25;;;;;;;13.36;67.83;98984.80;1788892;78;21549;-68
2022/02/19 01:23:05;;;;;;;6.92;4.75;;;;;;;13.34;67.79;98981.52;1792515;80;21140;-69
2022/02/19 01:25:33;;;;;;;5.47;4.50;;;;;;;13.32;67.82;98966.22;1794247;80;21056;-69
2022/02/19 01:27:59;;;;;;;4.85;4.40;;;;;;;13.30;67.84;98975.76;1796141;79;21000;-67
2022/02/19 01:30:27;;;;;;;5.08;4.22;;;;;;;13.29;67.83;98966.59;1793923;79;21077;-69
2022/02/19 01:32:55;;;;;;;5.10;4.45;;;;;;;13.26;67.80;98953.69;1760485;80;21226;-69
2022/02/19 01:35:22;;;;;;;5.50;4.78;;;;;;;13.25;67.81;98957.36;1788647;80;21222;-70
2022/02/19 01:37:49;;;;;;;4.40;3.92;;;;;;;13.24;67.76;98946.41;1755174;79;21017;-70
2022/02/19 01:40:16;;;;;;;4.58;3.87;;;;;;;13.22;67.76;98937.78;1749625;80;21066;-70
2022/02/19 01:42:44;;;;;;;6.53;4.90;;;;;;;13.21;67.78;98933.46;1760667;80;21022;-70
2022/02/19 01:45:12;;;;;;;4.90;4.08;;;;;;;13.19;67.80;98944.33;1771762;80;21069;-69
2022/02/19 01:47:39;;;;;;;4.40;3.75;;;;;;;13.16;67.81;98934.90;1762565;80;21110;-70
2022/02/19 01:50:08;;;;;;;5.03;4.10;;;;;;;13.15;67.81;98937.77;1761771;80;21467;-68
2022/02/19 01:52:36;;;;;;;5.95;4.53;;;;;;;13.13;67.84;98940.66;1772296;80;21017;-70
2022/02/19 01:55:03;;;;;;;5.78;4.80;;;;;;;13.11;67.82;98940.02;1780174;80;21573;-70
2022/02/19 01:57:32;;;;;;;6.00;4.08;;;;;;;13.10;67.87;98948.24;1773172;79;21349;-70
2022/02/19 02:00:00;;;;;;;5.85;4.20;;;;;;;13.08;67.82;98937.77;1758866;80;21123;-70
2022/02/19 02:02:44;;;;;;;4.78;3.77;;;;;;;13.07;67.74;98930.78;1774564;80;21069;-70
2022/02/19 02:05:22;;;;;;;5.70;4.70;;;;;;;13.06;67.77;98915.02;1758370;80;21053;-69
2022/02/19 02:07:49;;;;;;;5.97;4.33;;;;;;;13.03;67.77;98926.89;1766864;80;21598;-70
2022/02/19 02:10:16;;;;;;;6.42;4.45;;;;;;;13.03;67.82;98919.41;1743974;80;21073;-69
2022/02/19 02:12:42;;;;;;;5.37;4.50;;;;;;;13.02;67.83;98918.59;1767191;80;21777;-69
2022/02/19 02:15:28;;;;;;;5.25;3.70;;;;;;;13.00;67.80;98916.65;1756591;80;21542;-69
2022/02/19 02:18:12;;;;;;;4.92;4.00;;;;;;;12.98;67.81;98916.84;1781361;80;21034;-68
2022/02/19 02:20:40;;;;;;;5.03;3.80;;;;;;;12.97;67.84;98926.37;1766619;80;21022;-69
2022/02/19 02:23:08;;;;;;;4.70;4.03;;;;;;;12.73;67.83;98893.95;1783190;80;21084;-69
2022/02/19 02:25:35;;;;;;;5.25;4.45;;;;;;;12.92;67.85;98920.82;1782206;80;21862;-69
2022/02/19 02:28:09;;;;;;;5.40;4.17;;;;;;;12.92;67.85;98922.16;1777729;80;20986;-69
2022/02/19 02:30:33;;;;;;;4.80;4.00;;;;;;;12.90;67.84;98938.38;1782796;79;20994;-68
2022/02/19 02:33:11;;;;;;;6.47;4.25;;;;;;;12.90;67.85;98935.71;1765998;79;21046;-70
2022/02/19 02:35:39;;;;;;;4.60;3.98;;;;;;;12.89;67.89;98933.24;1775666;80;21537;-69
2022/02/19 02:38:06;;;;;;;5.58;4.20;;;;;;;12.88;67.91;98926.25;1744629;81;21150;-69
2022/02/19 02:40:33;;;;;;;5.20;4.20;;;;;;;12.87;67.95;98927.30;1776507;80;21568;-68
2022/02/19 02:43:00;;;;;;;5.90;4.10;;;;;;;12.86;67.96;98925.64;1765243;80;21085;-70
2022/02/19 02:45:28;;;;;;;6.75;4.83;;;;;;;12.85;67.98;98916.02;1775708;80;21509;-70
2022/02/19 02:47:55;;;;;;;4.92;4.22;;;;;;;12.83;67.98;98904.73;1776473;80;21074;-69
2022/02/19 02:50:22;;;;;;;6.00;4.28;;;;;;;12.82;67.99;98897.23;1779952;80;21089;-69
2022/02/19 02:52:48;;;;;;;4.83;3.95;;;;;;;12.81;68.04;98898.80;1789435;79;20990;-69
2022/02/19 02:55:15;;;;;;;6.35;3.98;;;;;;;12.79;68.04;98908.31;1790201;79;21532;-69
2022/02/19 02:57:41;;;;;;;5.78;4.60;;;;;;;12.79;68.09;98905.65;1782079;80;21029;-70
2022/02/19 03:00:12;;;;;;;5.70;4.42;;;;;;;12.77;68.12;98893.05;1771146;80;21023;-70
2022/02/19 03:02:41;;;;;;;6.10;4.12;;;;;;;12.77;68.10;98899.19;1771744;79;21113;-70
2022/02/19 03:05:09;;;;;;;4.75;4.25;;;;;;;12.76;68.13;98882.06;1762169;80;20998;-70
2022/02/19 03:07:36;;;;;;;4.42;4.00;;;;;;;12.75;68.11;98873.25;1770068;80;21048;-69
2022/02/19 03:10:06;;;;;;;5.12;3.98;;;;;;;12.75;68.21;98876.44;1744716;80;21021;-69
2022/02/19 03:12:33;;;;;;;4.90;4.40;;;;;;;12.74;68.18;98868.93;1781731;80;21036;-69
2022/02/19 03:15:01;;;;;;;5.10;4.08;;;;;;;12.74;68.13;98877.45;1772675;80;21208;-70
2022/02/19 03:17:27;;;;;;;4.85;4.08;;;;;;;12.76;68.14;98874.06;1782024;79;21513;-69
2022/02/19 03:19:54;;;;;;;4.58;4.10;;;;;;;12.76;68.08;98868.21;1761664;80;21100;-69
2022/02/19 03:22:21;;;;;;;5.97;4.12;;;;;;;12.76;68.07;98860.73;1784289;80;22101;-69
2022/02/19 03:24:48;;;;;;;7.60;4.20;;;;;;;12.76;68.04;98865.55;1783498;80;21022;-70
2022/02/19 03:27:16;;;;;;;5.42;4.28;;;;;;;12.76;68.03;98854.08;1783382;80;21151;-69
2022/02/19 03:29:42;;;;;;;4.30;3.52;;;;;;;12.77;67.99;98853.06;1766535;80;21549;-69
2022/02/19 03:32:09;;;;;;;4.40;3.60;;;;;;;12.77;67.98;98851.73;1775281;80;21059;-69
2022/02/19 03:34:36;;;;;;;4.62;4.12;;;;;;;12.77;67.91;98847.73;1772518;79;21026;-70
2022/02/19 03:37:04;;;;;;;4.35;3.47;;;;;;;12.75;67.93;98845.27;1778938;79;21041;-70
2022/02/19 03:39:31;;;;;;;5.65;4.12;;;;;;;12.75;67.95;98831.12;1758683;80;21160;-71
2022/02/19 03:41:58;;;;;;;6.70;4.70;;;;;;;12.75;67.98;98825.80;1783580;80;21530;-70
2022/02/19 03:44:25;;;;;;;4.33;3.77;;;;;;;12.74;68.01;98838.28;1747988;81;21084;-69
2022/02/19 03:46:53;;;;;;;4.50;3.72;;;;;;;12.72;68.11;98812.35;1775359;80;21041;-71
2022/02/19 03:49:26;;;;;;;4.33;3.85;;;;;;;12.72;68.05;98823.53;1767860;80;21592;-69
2022/02/19 03:51:53;;;;;;;6.60;4.25;;;;;;;12.70;68.11;98840.23;1789464;78;21100;-71
2022/02/19 03:54:19;;;;;;;4.33;3.72;;;;;;;12.69;68.17;98835.42;1756559;80;21028;-70
2022/02/19 03:56:47;;;;;;;4.58;4.17;;;;;;;12.69;68.17;98814.11;1791681;80;21052;-71
2022/02/19 03:59:18;;;;;;;4.20;3.52;;;;;;;12.67;68.15;98821.48;1748394;80;21549;-69
2022/02/19 04:01:44;;;;;;;4.80;3.83;;;;;;;12.65;68.18;98798.23;1772806;80;21076;-71
2022/02/19 04:04:12;;;;;;;4.85;3.67;;;;;;;12.64;68.23;98789.91;1767762;80;21108;-70
2022/02/19 04:06:40;;;;;;;5.08;3.83;;;;;;;12.64;68.29;98796.58;1765234;80;21010;-70
2022/02/19 04:09:06;;;;;;;4.25;3.62;;;;;;;12.63;68.32;98797.58;1773533;79;21081;-69
2022/02/19 04:11:35;;;;;;;4.92;3.52;;;;;;;12.64;68.31;98790.43;1781058;80;21025;-69
2022/02/19 04:14:02;;;;;;;5.28;3.70;;;;;;;12.62;68.29;98779.97;1781203;80;21083;-70
2022/02/19 04:16:31;;;;;;;4.12;3.50;;;;;;;12.63;68.32;98844.21;1784644;80;21237;-69
2022/02/19 04:18:58;;;;;;;4.80;4.10;;;;;;;12.61;68.28;98780.17;1776592;80;21051;-69
2022/02/19 04:21:24;;;;;;;4.75;3.70;;;;;;;12.60;68.35;98782.02;1763379;80;21599;-70
2022/02/19 04:23:53;;;;;;;4.00;3.60;;;;;;;12.59;68.30;98786.54;1775826;80;21085;-70
2022/02/19 04:26:20;;;;;;;4.62;3.58;;;;;;;12.59;68.32;98792.36;1768361;80;21049;-70
2022/02/19 04:28:48;;;;;;;4.22;3.42;;;;;;;12.58;68.33;98792.06;1784441;80;21154;-69
2022/02/19 04:31:17;;;;;;;4.03;3.60;;;;;;;12.57;68.33;98767.28;1772205;80;21014;-69
2022/02/19 04:33:44;;;;;;;5.20;3.75;;;;;;;12.57;68.33;98769.09;1765350;80;21066;-69
2022/02/19 04:36:10;;;;;;;4.70;3.50;;;;;;;12.56;68.36;98764.81;1774302;80;21041;-69
2022/02/19 04:38:39;;;;;;;4.25;3.58;;;;;;;12.56;68.35;98751.48;1766716;80;21098;-68
2022/02/19 04:41:06;;;;;;;5.62;3.83;;;;;;;12.55;68.37;98735.19;1781400;79;21144;-68
2022/02/19 04:43:33;;;;;;;6.05;3.50;;;;;;;12.55;68.36;98735.19;1776348;80;21076;-69
2022/02/19 04:46:01;;;;;;;4.95;4.03;;;;;;;12.53;68.39;98743.37;1770767;80;21011;-69
2022/02/19 04:48:27;;;;;;;6.15;4.08;;;;;;;12.53;68.38;98773.20;1769683;80;21102;-69
2022/02/19 04:50:54;;;;;;;4.28;3.50;;;;;;;12.52;68.37;98744.41;1766711;80;21556;-67
2022/02/19 04:53:22;;;;;;;3.80;3.50;;;;;;;12.53;68.36;98755.88;1775989;80;21153;-69
2022/02/19 04:55:49;;;;;;;4.75;3.85;;;;;;;12.51;68.29;98758.75;1776839;80;21029;-68
2022/02/19 05:00:19;;;;;;;4.53;3.52;;;;;;;12.56;68.28;98770.14;1858561;76;28047;-69
2022/02/19 05:03:04;;;;;;;5.62;3.70;;;;;;;12.51;68.25;98741.95;1824616;78;21734;-70
2022/02/19 05:05:32;;;;;;;4.00;3.45;;;;;;;12.50;68.22;98725.67;1824660;78;21136;-69
2022/02/19 05:07:58;;;;;;;5.08;3.30;;;;;;;12.49;68.25;98739.48;1826002;78;20950;-69
2022/02/19 05:10:25;;;;;;;5.20;4.12;;;;;;;12.48;68.26;98712.55;1818087;78;20961;-68
2022/02/19 05:12:53;;;;;;;4.03;3.30;;;;;;;12.47;68.23;98714.90;1812545;78;20942;-70
2022/02/19 05:15:21;;;;;;;6.05;3.60;;;;;;;12.47;68.27;98702.91;1824460;77;21057;-68
2022/02/19 05:17:51;;;;;;;5.58;3.60;;;;;;;12.47;68.23;98738.88;1813429;77;21144;-69
2022/02/19 05:20:20;;;;;;;3.98;3.45;;;;;;;12.46;68.27;98724.42;1807257;78;20969;-69
2022/02/19 05:22:47;;;;;;;5.25;3.58;;;;;;;12.46;68.21;98731.08;1820080;78;21490;-69
2022/02/19 05:25:13;;;;;;;5.15;3.50;;;;;;;12.46;68.20;98760.38;1825278;78;21040;-69
2022/02/19 05:27:40;;;;;;;3.65;3.05;;;;;;;12.46;68.18;98724.42;1812491;78;21021;-69
2022/02/19 05:30:10;;;;;;;4.35;3.55;;;;;;;12.45;68.18;98722.80;1825840;78;21077;-68
2022/02/19 05:32:39;;;;;;;4.20;3.60;;;;;;;12.44;68.12;98725.98;1758113;81;21501;-68
2022/02/19 05:35:08;;;;;;;5.53;3.45;;;;;;;12.44;68.10;98702.01;1753651;80;21458;-68
2022/02/19 05:37:36;;;;;;;3.20;2.87;;;;;;;12.44;68.10;98694.51;1747160;81;21295;-68
2022/02/19 05:40:05;;;;;;;3.60;3.30;;;;;;;12.44;68.12;98721.14;1768215;80;21022;-68
2022/02/19 05:42:33;;;;;;;4.00;3.55;;;;;;;12.43;68.10;98709.68;1778362;80;21142;-68
2022/02/19 05:45:09;;;;;;;5.50;3.52;;;;;;;12.42;68.08;98716.05;1758044;80;21061;-67
2022/02/19 05:47:37;;;;;;;4.75;3.55;;;;;;;12.42;68.03;98718.70;1788558;79;21049;-69
2022/02/19 05:50:11;;;;;;;3.70;3.30;;;;;;;12.42;68.03;98715.20;1727364;80;21020;-69
2022/02/19 05:52:43;;;;;;;4.15;3.50;;;;;;;12.41;68.04;98729.05;1773796;80;21081;-69
2022/02/19 05:55:11;;;;;;;4.30;3.33;;;;;;;12.40;68.06;98728.75;1772609;80;21146;-68
2022/02/19 05:57:42;;;;;;;3.65;3.08;;;;;;;12.41;68.00;98761.52;1774443;79;21025;-70
2022/02/19 06:00:11;;;;;;;4.47;3.00;;;;;;;12.41;68.04;98735.70;1771342;80;21016;-68
2022/02/19 06:02:40;;;;;;;3.60;3.22;;;;;;;12.40;68.02;98771.37;1758461;81;21510;-70
2022/02/19 06:05:07;;;;;;;3.95;3.22;;;;;;;12.39;67.99;98759.88;1762720;80;21054;-69
2022/02/19 06:07:36;;;;;;;5.55;3.42;;;;;;;12.39;68.03;98751.06;1757202;81;21124;-70
2022/02/19 06:10:04;;;;;;;3.95;3.52;;;;;;;12.39;67.91;98731.09;1749004;81;21482;-69
2022/02/19 06:12:31;;;;;;;3.85;3.33;;;;;;;12.37;67.93;98744.61;1768207;81;21051;-69
2022/02/19 06:15:00;;;;;;;7.20;4.17;;;;;;;12.38;67.93;98746.27;1758176;79;21047;-69
2022/02/19 06:17:28;;;;;;;5.12;3.98;;;;;;;12.38;67.96;98774.72;1761112;81;21053;-69
2022/02/19 06:19:55;;;;;;;3.83;3.17;;;;;;;12.36;67.94;98760.30;1759695;80;22225;-69
2022/02/19 06:22:21;;;;;;;3.47;3.17;;;;;;;12.36;67.95;98745.65;1758610;80;21032;-68
2022/02/19 06:24:50;;;;;;;4.85;3.05;;;;;;;12.34;67.90;98746.37;1749995;81;21038;-69
2022/02/19 06:27:18;;;;;;;3.98;3.30;;;;;;;12.36;67.86;98712.84;1764853;81;21554;-69
2022/02/19 06:29:49;;;;;;;4.70;3.15;;;;;;;12.35;67.80;98689.39;1748120;81;21065;-67
2022/02/19 06:32:16;;;;;;;3.98;3.52;;;;;;;12.34;67.80;98689.59;1754468;81;21145;-69
2022/02/19 06:34:44;;;;;;;4.35;3.10;;;;;;;12.33;67.84;98681.31;1750120;79;21082;-68
2022/02/19 06:37:14;;;;;;;4.65;3.20;;;;;;;12.31;67.83;98669.53;1768277;81;21039;-68
2022/02/19 06:39:41;;;;;;;3.45;2.92;;;;;;;12.32;67.85;98681.84;1758988;81;21577;-68
2022/02/19 06:42:08;;;;;;;4.28;3.37;;;;;;;12.32;67.85;98694.31;1759491;81;21015;-67
2022/02/19 06:44:49;;;;;;;4.33;3.33;;;;;;;12.31;67.90;98692.69;1762733;80;21982;-68
2022/02/19 06:47:15;;;;;;;4.55;3.27;;;;;;;12.30;67.93;98688.38;1814634;78;21081;-68
2022/02/19 06:49:42;;;;;;;3.85;3.45;;;;;;;12.29;67.96;98693.41;1795752;79;21042;-69
2022/02/19 06:52:09;;;;;;;3.87;2.92;;;;;;;12.28;67.94;98684.58;1811647;78;21481;-68
2022/02/19 06:54:35;;;;;;;2.85;2.52;;;;;;;12.29;67.91;98670.77;1797991;79;20979;-68
2022/02/19 06:57:03;;;;;;;3.58;2.80;;;;;;;12.28;67.89;98652.62;1813657;79;21143;-68
2022/02/19 06:59:31;;;;;;;3.72;3.33;;;;;;;12.27;67.88;98642.20;1814349;78;21044;-68
2022/02/19 07:01:58;;;;;;;4.30;3.33;;;;;;;12.26;67.84;98626.71;1802760;78;21022;-68
2022/02/19 07:04:26;;;;;;;3.75;3.12;;;;;;;12.26;67.84;98628.05;1804634;77;21029;-68
2022/02/19 07:06:52;;;;;;;3.98;3.20;;;;;;;12.26;67.80;98611.25;1807186;78;21014;-69
2022/02/19 07:09:21;;;;;;;4.67;2.92;;;;;;;12.25;67.80;98618.43;1804407;78;21482;-68
2022/02/19 07:11:47;;;;;;;4.78;3.47;;;;;;;12.22;67.81;98586.88;1810239;78;20981;-69
2022/02/19 07:14:14;;;;;;;5.58;3.70;;;;;;;12.25;67.90;98621.09;1819926;78;20994;-70
2022/02/19 07:16:41;;;;;;;6.42;3.25;;;;;;;12.25;67.89;98620.28;1812747;78;21021;-70
2022/02/19 07:19:08;;;;;;;5.03;3.58;;;;;;;12.24;67.84;98634.61;1791452;78;21012;-69
2022/02/19 07:21:35;;;;;;;4.10;3.47;;;;;;;12.23;67.78;98612.98;1807969;78;21068;-69
2022/02/19 07:24:02;;;;;;;4.72;3.35;;;;;;;12.24;67.69;98592.00;1796901;78;21055;-70
2022/02/19 07:26:31;;;;;;;5.78;3.58;;;;;;;12.22;67.69;98575.42;1820870;77;21555;-68
2022/02/19 07:29:01;;;;;;;5.15;3.80;;;;;;;12.23;67.71;98627.63;1817736;77;21516;-70
2022/02/19 07:31:29;;;;;;;3.95;3.50;;;;;;;12.22;67.70;98552.79;1809275;78;20994;-68
2022/02/19 07:33:56;;;;;;;4.55;2.83;;;;;;;12.22;67.69;98568.77;1816401;78;21120;-68
2022/02/19 07:36:25;;;;;;;3.70;3.12;;;;;;;12.22;67.63;98568.77;1815279;77;21034;-69
2022/02/19 07:38:52;;;;;;;5.15;3.80;;;;;;;12.23;67.65;98614.32;1811578;78;21513;-68
2022/02/19 07:41:20;;;;;;;4.90;3.50;;;;;;;12.22;67.58;98602.05;1804656;78;21019;-68
2022/02/19 07:43:57;;;;;;;4.75;3.10;;;;;;;12.21;67.59;98625.20;1802575;78;21025;-69
2022/02/19 07:46:31;;;;;;;5.22;3.37;;;;;;;12.21;67.56;98613.22;1803551;78;21131;-69
2022/02/19 07:58:18;;;;;;;5.15;3.17;;;;;;;12.16;67.55;98603.69;1823335;77;21072;-70
2022/02/19 08:00:57;;;;;;;4.67;3.47;;;;;;;12.15;67.50;98587.42;1809389;77;21121;-70
2022/02/19 08:03:26;;;;;;;4.17;3.35;;;;;;;12.14;67.54;98616.39;1794519;78;20994;-70
2022/02/19 08:05:54;;;;;;;3.92;3.12;;;;;;;12.14;67.62;98615.05;1816071;78;21060;-69
2022/02/19 08:08:21;;;;;;;3.75;3.20;;;;;;;12.14;67.66;98647.00;1818660;78;21022;-68
2022/02/19 08:10:48;;;;;;;3.47;2.83;;;;;;;12.14;67.72;98697.59;1815346;78;21454;-68
2022/02/19 08:13:16;;;;;;;4.78;3.08;;;;;;;12.14;67.75;98631.84;1810378;78;21144;-68
2022/02/19 08:15:45;;;;;;;4.55;3.08;;;;;;;12.16;67.76;98627.65;1818447;78;21064;-69
2022/02/19 08:18:13;;;;;;;4.05;3.08;;;;;;;12.17;67.77;98618.66;1819690;78;21032;-70
2022/02/19 08:20:44;;;;;;;3.90;3.27;;;;;;;12.17;67.81;98615.98;1822144;78;21005;-69
2022/02/19 08:23:12;;;;;;;4.33;3.30;;;;;;;12.17;67.92;98634.11;1825108;78;21028;-69
2022/02/19 08:25:39;;;;;;;4.35;3.65;;;;;;;12.20;67.93;98654.17;1804124;78;21105;-70
2022/02/19 08:28:06;;;;;;;4.12;2.90;;;;;;;12.18;67.90;98621.08;1820282;78;21403;-69
2022/02/19 08:30:37;;;;;;;4.35;3.35;;;;;;;12.20;67.95;98627.02;1817782;78;21030;-69
2022/02/19 08:33:08;;;;;;;4.78;2.87;;;;;;;12.20;67.97;98612.38;1834991;77;21014;-68
2022/02/19 08:35:36;;;;;;;4.17;3.12;;;;;;;12.20;67.95;98616.89;1820128;77;21111;-68
2022/02/19 08:38:03;;;;;;;5.47;3.45;;;;;;;12.22;68.01;98600.19;1806892;78;21133;-69
2022/02/19 08:40:29;;;;;;;3.62;2.85;;;;;;;12.20;67.99;98599.06;1817636;78;21014;-69
2022/02/19 08:42:56;;;;;;;4.85;3.50;;;;;;;12.22;67.92;98612.70;1808296;78;20974;-69
2022/02/19 08:45:23;;;;;;;4.08;3.35;;;;;;;12.23;67.99;98603.67;1809702;77;21052;-67
2022/02/19 08:47:51;;;;;;;4.67;3.15;;;;;;;12.23;68.01;98605.00;1811966;78;21068;-68
2022/02/19 08:50:18;;;;;;;6.80;3.70;;;;;;;12.24;68.01;98577.36;1804126;78;21091;-69
2022/02/19 08:52:46;;;;;;;5.25;3.42;;;;;;;12.24;68.08;98595.48;1814061;78;21084;-71
2022/02/19 08:55:14;;;;;;;4.58;3.22;;;;;;;12.25;68.10;98578.48;1810404;78;21123;-72
2022/02/19 08:57:41;;;;;;;4.65;3.25;;;;;;;12.25;68.14;98612.30;1824385;78;21568;-72
2022/02/19 09:00:13;;;;;;;3.40;3.10;;;;;;;12.22;70.90;98605.52;1819029;78;21540;-72
2022/02/19 09:02:41;;;;;;;8.30;4.03;;;;;;;12.44;70.88;98595.95;1811359;78;21120;-72
2022/02/19 09:05:10;;;;;;;4.60;3.40;;;;;;;12.61;70.88;98595.81;1813252;79;20986;-73
2022/02/19 09:07:39;;;;;;;5.15;3.85;;;;;;;12.63;70.99;98576.44;1813483;77;21041;-70
2022/02/19 09:10:09;;;;;;;5.37;3.90;;;;;;;12.64;70.83;98620.72;1798783;79;21050;-73
2022/02/19 09:12:43;;;;;;;6.83;3.83;;;;;;;12.65;70.62;98580.23;1813963;78;21076;-73
2022/02/19 09:15:07;;;;;;;5.83;3.15;;;;;;;12.65;70.49;98599.72;1810878;79;21086;-72
2022/02/19 09:17:35;;;;;;;6.05;4.00;;;;;;;12.64;70.41;98607.39;1819451;78;21002;-73
2022/02/19 09:20:02;;;;;;;4.47;3.47;;;;;;;12.62;70.37;98606.79;1814293;78;21583;-74
2022/02/19 09:22:29;;;;;;;4.80;3.72;;;;;;;12.60;70.28;98595.52;1795746;78;21522;-73
2022/02/19 09:24:55;;;;;;;5.80;3.33;;;;;;;12.60;70.21;98632.83;1813420;79;21065;-74
2022/02/19 09:27:21;;;;;;;4.33;3.25;;;;;;;12.58;70.13;98611.71;1813107;78;21092;-74
2022/02/19 09:29:48;;;;;;;5.47;3.92;;;;;;;12.57;70.07;98614.09;1814070;78;21042;-73
2022/02/19 09:32:14;;;;;;;5.05;3.35;;;;;;;12.58;69.96;98616.23;1802089;78;21483;-74
2022/02/19 09:34:41;;;;;;;5.10;3.62;;;;;;;12.58;69.86;98611.71;1809258;77;21076;-73
2022/02/19 09:37:07;;;;;;;4.42;3.60;;;;;;;12.58;69.81;98622.89;1815686;78;21582;-74
2022/02/19 09:39:34;;;;;;;5.03;3.50;;;;;;;12.56;69.70;98603.11;1812121;78;20980;-75
2022/02/19 09:42:03;;;;;;;5.22;3.52;;;;;;;12.57;69.64;98599.92;1812606;78;21057;-73
2022/02/19 09:44:29;;;;;;;4.25;3.80;;;;;;;12.56;69.57;98593.78;1803856;78;21115;-74
2022/02/19 09:46:56;;;;;;;3.95;3.50;;;;;;;12.56;69.50;98574.33;1800041;78;20974;-74
2022/02/19 09:49:23;;;;;;;5.90;3.90;;;;;;;12.57;69.43;98539.98;1809703;78;21076;-73
2022/02/19 09:51:49;;;;;;;4.87;3.37;;;;;;;12.56;69.37;98558.34;1807571;79;21514;-73
2022/02/19 09:54:16;;;;;;;6.22;3.60;;;;;;;12.56;69.34;98499.73;1812322;79;21022;-74
2022/02/19 09:56:42;;;;;;;6.00;3.72;;;;;;;12.56;69.25;98507.73;1813045;78;21044;-73
2022/02/19 09:59:12;;;;;;;4.97;3.47;;;;;;;12.57;69.20;98517.34;1803969;77;21112;-75
2022/02/19 10:01:39;;;;;;;6.03;3.90;;;;;;;12.56;69.27;98502.41;1817805;78;20999;-74
2022/02/19 10:04:06;;;;;;;4.70;4.00;;;;;;;12.56;69.28;98505.06;1816360;78;22329;-74
2022/02/19 10:06:37;;;;;;;4.65;3.60;;;;;;;12.56;69.31;98524.52;1809464;77;21048;-73
2022/02/19 10:09:17;;;;;;;4.67;3.67;;;;;;;12.57;69.27;98550.15;1818980;78;21537;-76
2022/02/19 10:11:45;;;;;;;5.97;3.95;;;;;;;12.58;69.29;98534.97;1802828;78;21473;-74
2022/02/19 10:14:29;;;;;;;5.55;3.92;;;;;;;12.59;69.29;98553.91;1819632;78;21042;-74
2022/02/19 10:17:18;;;;;;;4.92;3.52;;;;;;;12.58;69.34;98573.08;1790702;78;21073;-74
2022/02/19 10:19:52;;;;;;;4.80;3.80;;;;;;;12.58;69.33;98582.41;1816615;78;21017;-76
2022/02/19 10:22:22;;;;;;;4.67;3.90;;;;;;;12.57;69.34;98574.62;1806269;77;26961;-73
2022/02/19 10:24:52;;;;;;;5.80;4.40;;;;;;;12.58;69.32;98576.27;1802566;77;21016;-74
2022/02/19 10:27:19;;;;;;;5.42;4.00;;;;;;;12.58;69.32;98561.61;1808154;78;21075;-78
2022/02/19 10:29:53;;;;;;;6.17;4.15;;;;;;;12.59;69.32;98573.89;1812680;78;21107;-75
2022/02/19 10:32:20;;;;;;;5.25;4.17;;;;;;;12.60;69.35;98582.20;1795281;78;21103;-74
2022/02/19 10:35:05;;;;;;;6.35;3.98;;;;;;;12.60;69.40;98590.20;1790927;77;21544;-74
2022/02/19 10:37:45;;;;;;;7.45;4.12;;;;;;;12.62;69.42;98566.83;1797928;78;21004;-76
2022/02/19 10:40:42;;;;;;;5.28;4.10;;;;;;;12.63;69.45;98572.44;1792283;78;21052;-77
2022/02/19 10:43:19;;;;;;;6.25;4.05;;;;;;;12.65;69.41;98579.73;1815581;77;21139;-76
2022/02/19 10:46:00;;;;;;;5.58;3.98;;;;;;;12.65;69.40;98598.39;1802089;77;21047;-75
2022/02/19 10:48:29;;;;;;;5.97;4.37;;;;;;;12.67;69.35;98612.81;1798209;78;21524;-75
2022/02/19 10:51:14;;;;;;;6.00;4.55;;;;;;;12.68;69.38;98615.27;1767064;80;20990;-76
2022/02/19 10:53:43;;;;;;;4.80;3.90;;;;;;;12.69;69.39;98603.60;1791650;78;20989;-71
2022/02/19 10:56:17;;;;;;;54.93;18.65;;;;;;;12.69;69.34;98527.66;1802548;78;21698;-70
2022/02/19 10:59:02;;;;;;;42.45;17.07;;;;;;;12.75;75.52;98528.14;1795157;78;20988;-71
2022/02/19 11:01:49;;;;;;;35.80;18.32;;;;;;;13.10;79.22;98538.95;1793605;77;21025;-69
2022/02/19 11:04:21;;;;;;;34.23;14.68;;;;;;;13.43;80.70;98508.09;1804904;78;21520;-70
2022/02/19 11:06:49;;;;;;;37.93;14.07;;;;;;;13.70;82.60;98507.35;1803992;78;22309;-68
2022/02/19 11:09:16;;;;;;;30.45;14.15;;;;;;;14.00;82.98;98518.67;1803643;78;21942;-71
2022/02/19 11:11:45;;;;;;;33.98;16.05;;;;;;;14.36;84.27;98484.50;1806558;77;20981;-68
2022/02/19 11:14:14;;;;;;;42.40;16.30;;;;;;;14.65;85.58;98496.83;1798507;77;21087;-78
2022/02/19 11:16:40;;;;;;;35.13;14.98;;;;;;;14.94;86.97;98504.58;1801112;78;21024;-72
2022/02/19 11:19:08;;;;;;;36.83;16.07;;;;;;;15.29;86.11;98511.09;1799793;78;21028;-76
2022/02/19 11:21:36;;;;;;;38.15;15.35;;;;;;;15.66;85.31;98482.81;1801804;78;21126;-70
2022/02/19 11:24:08;;;;;;;35.25;15.58;;;;;;;15.90;84.08;98509.94;1805868;78;21069;-70
2022/02/19 11:26:34;;;;;;;28.92;15.48;;;;;;;16.09;83.02;98505.80;1793589;78;21017;-70
2022/02/19 11:29:05;;;;;;;28.95;14.55;;;;;;;16.29;82.90;98476.75;1814129;78;21030;-70
2022/02/19 11:31:32;;;;;;;29.07;16.05;;;;;;;16.55;82.37;98492.55;1813446;78;21513;-74
2022/02/19 11:34:04;;;;;;;30.37;15.45;;;;;;;16.83;81.34;98454.25;1814347;78;21117;-72
2022/02/19 11:36:32;;;;;;;29.95;14.78;;;;;;;16.94;79.85;98562.53;1820143;78;21035;-72
2022/02/19 11:38:59;;;;;;;25.35;16.15;;;;;;;16.87;78.10;98582.80;1814951;78;20965;-72
2022/02/19 11:41:43;;;;;;;25.95;14.85;;;;;;;16.76;76.80;98584.95;1776082;77;21089;-75
2022/02/19 11:44:22;;;;;;;26.45;15.53;;;;;;;16.62;76.02;98587.08;1812421;77;21032;-72
2022/02/19 11:46:50;;;;;;;24.23;13.85;;;;;;;16.44;75.45;98584.82;1826343;77;21903;-75
2022/02/19 11:49:27;;;;;;;33.00;14.25;;;;;;;16.39;74.68;98600.78;1823736;77;21045;-70
2022/02/19 11:52:18;;;;;;;23.45;13.50;;;;;;;16.30;73.90;98570.02;1814229;78;20994;-72